Time;durP1;ratioP1;P1;durP2;ratioP2;P2;SDS_P1;SDS_P2;PMS_P1;PMS_P2;Temp;Humidity;BMP_temperature;BMP_pressure;BME280_temperature;BME280_humidity;BME280_pressure;Samples;Min_cycle;Max_cycle;Signal;HPM_P1;HPM_P2
2023/01/13 00:02:36;;;;;;;25.55;6.97;;;;;;;8.27;100.00;99920.38;10481707;28;20401;-72
2023/01/13 00:07:38;;;;;;;21.83;5.65;;;;;;;8.22;100.00;99925.81;10494992;28;20061;-73
2023/01/13 00:12:42;;;;;;;26.52;7.45;;;;;;;8.14;100.00;99926.28;10426127;28;20052;-71
2023/01/13 00:17:42;;;;;;;20.38;5.05;;;;;;;8.09;100.00;99915.31;10429061;28;20045;-72
2023/01/13 00:22:43;;;;;;;23.20;5.85;;;;;;;7.94;100.00;99909.66;10456166;28;20071;-73
2023/01/13 00:27:44;;;;;;;19.95;5.78;;;;;;;7.84;100.00;99905.75;10456420;28;20060;-76
2023/01/13 00:32:44;;;;;;;19.27;4.38;;;;;;;7.81;100.00;99920.00;10441432;28;20033;-72
2023/01/13 00:37:44;;;;;;;24.70;5.97;;;;;;;7.79;100.00;99910.38;10458523;28;20060;-68
2023/01/13 00:48:04;;;;;;;19.92;5.97;;;;;;;7.72;100.00;99915.25;10457723;28;20424;-72
2023/01/13 00:53:04;;;;;;;39.47;8.02;;;;;;;7.38;100.00;99883.41;10457821;28;20056;-73
2023/01/13 00:58:05;;;;;;;33.53;6.28;;;;;;;7.51;100.00;99906.81;10474540;28;20090;-72
2023/01/13 01:03:11;;;;;;;31.05;6.53;;;;;;;7.43;100.00;99899.06;10464747;28;20052;-73
2023/01/13 01:08:11;;;;;;;32.47;6.35;;;;;;;7.39;100.00;99904.22;10481919;28;20040;-76
2023/01/13 01:13:15;;;;;;;34.20;6.68;;;;;;;7.36;100.00;99903.88;10501019;28;20040;-75
2023/01/13 01:18:16;;;;;;;35.47;6.82;;;;;;;7.35;100.00;99902.25;10487320;28;20401;-73
2023/01/13 01:23:16;;;;;;;29.60;5.80;;;;;;;7.32;100.00;99906.34;10464923;28;20063;-73
2023/01/13 01:28:19;;;;;;;30.50;8.55;;;;;;;7.25;100.00;99913.91;10465041;28;20044;-72
2023/01/13 01:33:20;;;;;;;31.98;5.80;;;;;;;7.21;100.00;99910.03;10465388;28;20116;-73
2023/01/13 01:38:22;;;;;;;25.60;5.65;;;;;;;7.08;100.00;99920.28;10465412;28;20512;-72
2023/01/13 01:49:12;;;;;;;37.65;7.03;;;;;;;7.02;100.00;99926.75;10369291;28;20037;-72
2023/01/13 01:54:16;;;;;;;42.42;7.68;;;;;;;7.04;100.00;99912.84;10439610;28;20033;-73
2023/01/13 01:59:17;;;;;;;39.60;8.48;;;;;;;7.10;100.00;99927.41;10447709;28;20037;-73
2023/01/13 02:04:23;;;;;;;35.63;8.07;;;;;;;6.96;100.00;99919.56;10464537;28;20505;-72
2023/01/13 02:09:24;;;;;;;40.35;6.90;;;;;;;6.90;100.00;99920.59;10432055;28;20030;-73
2023/01/13 02:14:26;;;;;;;30.60;6.82;;;;;;;6.89;100.00;99924.41;10448116;28;20051;-73
2023/01/13 02:19:56;;;;;;;26.45;5.97;;;;;;;6.83;100.00;99900.81;10488137;28;20531;-73
2023/01/13 02:25:11;;;;;;;26.23;5.65;;;;;;;6.91;100.00;99908.56;10489263;28;20040;-73
2023/01/13 02:36:09;;;;;;;31.15;5.30;;;;;;;7.01;100.00;99897.75;10464597;28;20068;-73
2023/01/13 02:47:14;;;;;;;36.17;6.90;;;;;;;7.03;100.00;99889.31;10439391;28;20037;-73
2023/01/13 02:52:33;;;;;;;31.27;6.03;;;;;;;6.98;100.00;99870.88;10460297;28;20055;-71
2023/01/13 02:57:33;;;;;;;27.45;5.65;;;;;;;6.94;100.00;99888.91;10462193;28;20068;-73
2023/01/13 03:02:34;;;;;;;26.10;5.85;;;;;;;6.92;100.00;99869.16;10460087;28;20029;-71
2023/01/13 03:08:26;;;;;;;25.50;5.53;;;;;;;6.91;100.00;99859.31;10461666;28;20386;-72
2023/01/13 03:13:49;;;;;;;29.27;5.28;;;;;;;6.78;100.00;99855.06;10427222;28;20040;-70
2023/01/13 03:19:10;;;;;;;35.03;7.25;;;;;;;6.80;100.00;99852.06;10452555;28;20152;-71
2023/01/13 03:24:19;;;;;;;30.83;6.18;;;;;;;6.79;100.00;99842.22;10463225;28;20045;-71
2023/01/13 03:29:29;;;;;;;24.55;5.00;;;;;;;6.80;100.00;99852.06;10459547;28;20044;-71
2023/01/13 03:34:36;;;;;;;21.52;5.20;;;;;;;6.91;100.00;99810.06;10460841;28;20453;-71
2023/01/13 03:39:38;;;;;;;29.27;7.30;;;;;;;6.83;100.00;99835.16;10443607;28;20040;-72
2023/01/13 03:44:45;;;;;;;24.77;5.68;;;;;;;6.85;100.00;99838.44;10427305;28;20047;-72
2023/01/13 03:50:05;;;;;;;32.90;6.10;;;;;;;6.81;100.00;99842.78;10438117;28;20056;-71
2023/01/13 03:55:14;;;;;;;30.23;7.13;;;;;;;6.81;100.00;99860.00;10459350;28;20029;-72
2023/01/13 04:00:15;;;;;;;27.10;5.43;;;;;;;6.77;100.00;99836.16;10442875;28;20063;-71
2023/01/13 04:05:16;;;;;;;28.55;5.82;;;;;;;6.81;100.00;99820.91;10443515;28;20067;-71
2023/01/13 04:10:27;;;;;;;31.73;6.38;;;;;;;6.81;100.00;99820.91;10425872;28;20041;-72
2023/01/13 04:15:33;;;;;;;29.48;5.05;;;;;;;6.89;100.00;99823.19;10442571;28;20036;-70
2023/01/13 04:20:33;;;;;;;33.80;5.93;;;;;;;6.87;100.00;99830.81;10443030;28;20045;-75
2023/01/13 04:25:34;;;;;;;33.83;8.18;;;;;;;6.88;100.00;99810.56;10460482;28;20037;-71
2023/01/13 04:30:34;;;;;;;30.25;6.43;;;;;;;6.93;100.00;99801.63;10460972;28;20041;-71
2023/01/13 04:35:35;;;;;;;31.42;6.65;;;;;;;7.09;100.00;99795.22;10442146;28;20044;-72
2023/01/13 04:40:35;;;;;;;24.88;5.50;;;;;;;7.08;100.00;99810.78;10425107;28;20087;-71
2023/01/13 04:45:36;;;;;;;25.98;5.75;;;;;;;7.05;100.00;99810.50;10424369;28;20071;-72
2023/01/13 04:50:36;;;;;;;35.92;7.70;;;;;;;6.94;100.00;99809.53;10456306;28;20033;-71
2023/01/13 04:55:37;;;;;;;37.58;5.63;;;;;;;6.96;100.00;99810.13;10468796;28;20499;-71
2023/01/13 05:00:37;;;;;;;31.23;6.47;;;;;;;6.99;100.00;99812.34;10483313;28;20421;-68
2023/01/13 05:05:39;;;;;;;34.53;5.82;;;;;;;7.02;100.00;99809.09;10498503;28;20075;-72
2023/01/13 05:10:39;;;;;;;26.20;6.82;;;;;;;6.94;100.00;99816.94;10481992;28;20059;-73
2023/01/13 05:20:59;;;;;;;25.55;5.50;;;;;;;6.97;100.00;99783.59;10457369;28;20052;-73
2023/01/13 05:26:00;;;;;;;29.10;6.50;;;;;;;7.12;100.00;99793.88;10457339;28;20056;-71
2023/01/13 05:31:00;;;;;;;34.70;8.48;;;;;;;7.15;100.00;99793.34;10456667;28;20033;-72
2023/01/13 05:36:01;;;;;;;25.15;5.18;;;;;;;7.18;100.00;99787.38;10440489;28;20056;-72
2023/01/13 05:46:21;;;;;;;35.08;6.38;;;;;;;7.30;100.00;99799.00;10458694;28;20033;-72
2023/01/13 05:51:25;;;;;;;32.03;6.82;;;;;;;7.36;100.00;99788.88;10486747;28;20040;-71
2023/01/13 05:56:25;;;;;;;25.02;4.85;;;;;;;7.37;100.00;99788.63;10467262;28;20033;-72
2023/01/13 06:01:26;;;;;;;23.15;3.95;;;;;;;7.41;100.00;99787.03;10450507;28;20047;-72
2023/01/13 06:06:26;;;;;;;24.35;5.80;;;;;;;7.41;100.00;99784.28;10484602;28;20041;-71
2023/01/13 06:11:26;;;;;;;26.00;5.18;;;;;;;7.36;100.00;99778.78;10463691;28;20041;-72
2023/01/13 06:16:27;;;;;;;31.92;5.97;;;;;;;7.32;100.00;99772.19;10462801;28;20044;-76
2023/01/13 06:21:28;;;;;;;29.50;4.47;;;;;;;7.36;100.00;99783.41;10411766;28;20063;-72
2023/01/13 06:26:29;;;;;;;27.13;5.78;;;;;;;7.33;100.00;99787.50;10463202;28;20440;-72
2023/01/13 06:31:30;;;;;;;23.00;5.53;;;;;;;7.28;100.00;99791.03;10443663;28;20089;-75
2023/01/13 06:36:36;;;;;;;21.33;4.28;;;;;;;7.32;100.00;99798.72;10429234;28;20044;-75
2023/01/13 06:46:56;;;;;;;24.92;5.32;;;;;;;7.30;100.00;99787.19;10449279;28;20047;-73
2023/01/13 06:51:56;;;;;;;25.40;3.88;;;;;;;7.33;100.00;99783.94;10446378;28;20083;-73
2023/01/13 06:56:56;;;;;;;26.35;4.50;;;;;;;7.31;100.00;99788.84;10444730;28;20037;-73
2023/01/13 07:01:57;;;;;;;22.15;4.68;;;;;;;7.28;100.00;99784.72;10444181;28;20048;-71
2023/01/13 07:06:57;;;;;;;20.92;4.32;;;;;;;7.28;100.00;99782.81;10460598;28;20056;-74
2023/01/13 07:11:58;;;;;;;17.85;3.63;;;;;;;7.26;100.00;99800.59;10460873;28;20044;-72
2023/01/13 07:16:59;;;;;;;28.33;5.13;;;;;;;7.25;100.00;99799.75;10463128;28;20041;-70
2023/01/13 07:21:59;;;;;;;19.13;4.65;;;;;;;7.25;100.00;99791.53;10429301;28;20033;-73
2023/01/13 07:26:59;;;;;;;20.75;5.15;;;;;;;7.24;100.00;99791.81;10445194;28;20041;-74
2023/01/13 07:32:00;;;;;;;18.25;3.58;;;;;;;7.19;100.00;99775.31;10460683;28;20045;-72
2023/01/13 07:37:00;;;;;;;17.52;3.78;;;;;;;7.16;100.00;99800.50;10491424;28;20055;-73
2023/01/13 07:47:37;;;;;;;15.38;3.80;;;;;;;6.90;100.00;99819.34;10382222;28;20405;-69
2023/01/13 07:52:38;;;;;;;19.52;3.47;;;;;;;6.81;100.00;99842.78;10466235;28;20051;-75
2023/01/13 07:57:38;;;;;;;20.25;5.45;;;;;;;6.63;100.00;99841.19;10502579;28;20051;-76
2023/01/13 08:02:38;;;;;;;17.98;4.55;;;;;;;6.58;100.00;99854.81;10467546;28;20036;-72
2023/01/13 08:07:39;;;;;;;20.63;4.22;;;;;;;6.57;100.00;99862.16;10480514;28;20061;-72
2023/01/13 08:17:59;;;;;;;17.70;4.18;;;;;;;6.49;100.00;99856.28;10461281;28;20041;-72
2023/01/13 08:22:59;;;;;;;29.38;4.80;;;;;;;6.50;100.00;99864.25;10458294;28;20061;-73
2023/01/13 08:28:00;;;;;;;13.40;4.18;;;;;;;6.53;100.00;99855.56;10442046;28;20047;-73
2023/01/13 08:33:00;;;;;;;15.68;3.75;;;;;;;6.59;100.00;99864.63;10458322;28;20037;-71
2023/01/13 08:38:01;;;;;;;24.85;5.05;;;;;;;6.63;100.00;99852.13;10458350;28;20037;-70
2023/01/13 08:43:01;;;;;;;18.05;4.47;;;;;;;6.66;100.00;99851.63;10458734;28;20041;-73
2023/01/13 08:48:02;;;;;;;16.70;4.60;;;;;;;6.72;100.00;99857.97;10459444;28;20041;-71
2023/01/13 08:53:03;;;;;;;14.48;3.83;;;;;;;6.79;100.00;99855.88;10457633;28;20703;-70
2023/01/13 08:58:03;;;;;;;26.33;4.25;;;;;;;6.82;100.00;99858.09;10459508;28;20037;-72
2023/01/13 09:03:04;;;;;;;25.67;5.10;;;;;;;6.85;100.00;99865.81;10457615;28;20033;-70
2023/01/13 09:08:04;;;;;;;24.20;4.72;;;;;;;6.88;100.00;99876.22;10457740;28;20048;-71
2023/01/13 09:13:11;;;;;;;29.40;6.93;;;;;;;6.87;100.00;99869.94;10500199;28;20033;-73
2023/01/13 09:18:11;;;;;;;19.75;4.70;;;;;;;6.84;100.00;99870.47;10443257;28;20083;-72
2023/01/13 09:23:12;;;;;;;28.38;6.20;;;;;;;6.88;100.00;99884.44;10456612;28;20067;-71
2023/01/13 09:28:12;;;;;;;26.88;5.90;;;;;;;6.84;100.00;99886.03;10457134;28;20029;-74
2023/01/13 09:38:32;;;;;;;23.85;6.18;;;;;;;6.83;100.00;99885.22;10477689;28;20036;-70
2023/01/13 09:43:53;;;;;;;39.22;9.40;;;;;;;6.71;100.00;99920.06;10509116;28;20040;-75
2023/01/13 09:48:54;;;;;;;22.77;5.90;;;;;;;6.49;100.00;99939.19;10506870;28;20447;-80
2023/01/13 09:54:05;;;;;;;32.58;9.07;;;;;;;6.38;100.00;99938.16;10473441;28;20059;-77
2023/01/13 09:59:10;;;;;;;32.33;8.38;;;;;;;6.33;100.00;99942.75;10508029;28;20040;-77
2023/01/13 10:04:11;;;;;;;32.58;9.07;;;;;;;6.31;100.00;99942.16;10450590;28;20094;-77
2023/01/13 10:09:17;;;;;;;38.00;9.48;;;;;;;6.26;100.00;99959.28;10431672;28;20086;-74
2023/01/13 10:14:23;;;;;;;34.25;10.60;;;;;;;6.25;100.00;99930.31;10432229;28;20480;-79
2023/01/13 10:19:28;;;;;;;36.70;12.73;;;;;;;6.28;100.00;99942.66;10447947;28;20037;-73
2023/01/13 10:24:45;;;;;;;38.80;9.85;;;;;;;6.37;100.00;99943.91;10447961;28;20025;-73
2023/01/13 10:29:45;;;;;;;24.92;7.93;;;;;;;6.41;100.00;99945.06;10471107;28;20060;-78
2023/01/13 10:34:50;;;;;;;26.92;9.18;;;;;;;6.34;100.00;99958.88;10468387;28;20029;-80
2023/01/13 10:39:53;;;;;;;33.80;9.02;;;;;;;6.30;100.00;99959.63;10483883;28;20040;-78
2023/01/13 10:44:55;;;;;;;19.55;8.05;;;;;;;6.21;100.00;99954.56;10467647;28;20037;-81
2023/01/13 10:50:07;;;;;;;35.60;8.88;;;;;;;6.38;100.00;99983.81;10448508;28;20087;-76
2023/01/13 10:55:29;;;;;;;20.92;7.60;;;;;;;6.40;100.00;99978.94;10483058;28;20043;-74
2023/01/13 11:00:33;;;;;;;25.25;8.23;;;;;;;6.34;100.00;99969.81;10484312;28;20041;-78
2023/01/13 11:05:34;;;;;;;25.60;8.68;;;;;;;6.44;100.00;99963.69;10480791;28;20509;-79
2023/01/13 11:10:37;;;;;;;34.03;10.27;;;;;;;6.51;100.00;99980.78;10457270;28;20033;-79
2023/01/13 11:15:49;;;;;;;28.67;9.65;;;;;;;6.55;100.00;99978.34;10466481;28;20051;-76
2023/01/13 11:20:50;;;;;;;31.25;9.68;;;;;;;6.58;100.00;99986.88;10501182;28;20094;-75
2023/01/13 11:26:01;;;;;;;34.03;10.85;;;;;;;6.59;100.00;99993.19;10499260;28;20036;-77
2023/01/13 11:31:07;;;;;;;32.00;9.32;;;;;;;6.62;100.00;99985.31;10483287;28;20528;-77
2023/01/13 11:36:37;;;;;;;26.52;8.77;;;;;;;6.72;100.00;99990.13;10501417;28;20024;-78
2023/01/13 11:42:19;;;;;;;25.02;8.73;;;;;;;6.76;100.00;100001.38;10491894;28;20032;-74
2023/01/13 11:47:11;;;;;;;19.02;7.75;;;;;;;6.70;100.00;99988.69;10447961;28;20106;-80
2023/01/13 11:52:34;;;;;;;20.50;7.80;;;;;;;6.83;100.00;100004.78;10448075;28;20037;-75
2023/01/13 11:57:53;;;;;;;26.65;9.02;;;;;;;6.87;100.00;100016.88;10440749;28;20409;-74
2023/01/13 12:03:01;;;;;;;17.55;6.80;;;;;;;6.91;100.00;99996.13;10475661;28;20057;-74
2023/01/13 12:08:25;;;;;;;23.73;5.75;;;;;;;6.95;100.00;99994.56;10461748;28;20048;-74
2023/01/13 12:14:08;;;;;;;15.10;5.75;;;;;;;7.02;100.00;100010.78;10462420;28;20400;-72
2023/01/13 12:19:24;;;;;;;16.13;5.97;;;;;;;7.14;100.00;100006.03;10470319;28;20110;-78
2023/01/13 12:24:29;;;;;;;;;;;;;;;7.23;100.00;100011.88;10474369;28;20052;-75
2023/01/13 12:29:32;;;;;;;21.63;5.05;;;;;;;7.22;100.00;100005.59;10476258;28;19920;-77
2023/01/13 12:34:56;;;;;;;24.30;8.70;;;;;;;7.15;100.00;100007.69;10480313;28;20040;-81
2023/01/13 12:40:12;;;;;;;19.92;6.40;;;;;;;7.21;100.00;100022.25;10465089;28;20389;-79
2023/01/13 12:45:12;;;;;;;17.00;5.85;;;;;;;7.20;100.00;100009.66;10459783;28;20041;-76
2023/01/13 12:50:22;;;;;;;23.00;6.55;;;;;;;7.27;100.00;100026.72;10459670;28;20040;-76
2023/01/13 12:55:24;;;;;;;16.27;5.38;;;;;;;7.26;100.00;100025.91;10460366;28;20033;-79
2023/01/13 13:00:39;;;;;;;16.83;3.67;;;;;;;7.37;100.00;100026.88;10475685;28;20045;-76
2023/01/13 13:06:03;;;;;;;14.40;3.38;;;;;;;7.38;100.00;100016.72;10462320;28;20093;-74
2023/01/13 13:16:44;;;;;;;16.10;4.07;;;;;;;7.68;100.00;100044.50;10457868;28;20048;-75
2023/01/13 13:22:16;;;;;;;8.82;2.72;;;;;;;7.70;100.00;100038.78;10460134;28;20048;-73
2023/01/13 13:27:23;;;;;;;19.40;3.72;;;;;;;7.81;100.00;100059.75;10459313;28;20037;-76
2023/01/13 13:32:29;;;;;;;18.13;3.47;;;;;;;7.79;100.00;100061.06;10451972;28;20436;-80
2023/01/13 13:48:29;;;;;;;14.65;2.95;;;;;;;7.64;100.00;100072.69;10483163;28;19983;-75
2023/01/13 13:53:34;;;;;;;8.68;2.97;;;;;;;7.50;100.00;100063.19;10447862;28;20091;-75
2023/01/13 13:58:36;;;;;;;8.82;2.83;;;;;;;7.54;100.00;100124.59;10460081;28;20056;-72
2023/01/13 14:03:36;;;;;;;13.07;4.13;;;;;;;7.55;100.00;100098.88;10457558;28;20481;-76
2023/01/13 14:08:37;;;;;;;14.45;3.10;;;;;;;7.72;100.00;100088.66;10420514;28;20059;-75
2023/01/13 14:13:37;;;;;;;13.50;2.88;;;;;;;7.81;100.00;100113.72;10473887;28;20404;-75
2023/01/13 14:18:47;;;;;;;12.63;2.65;;;;;;;7.88;100.00;100114.38;10459153;28;20052;-75
2023/01/13 14:24:10;;;;;;;11.13;2.88;;;;;;;7.89;100.00;100133.25;10457778;28;20471;-71
2023/01/13 14:29:14;;;;;;;16.00;2.65;;;;;;;7.95;100.00;100114.16;10463907;28;20048;-74
2023/01/13 14:34:14;;;;;;;11.20;2.72;;;;;;;7.91;100.00;100145.91;10452156;28;20071;-75
2023/01/13 14:39:15;;;;;;;12.98;2.90;;;;;;;7.87;100.00;100167.50;10453008;28;20095;-73
2023/01/13 14:44:32;;;;;;;12.77;2.75;;;;;;;7.75;100.00;100151.19;10479556;28;20502;-73
2023/01/13 14:50:01;;;;;;;16.60;3.67;;;;;;;7.56;100.00;100160.78;10464367;28;20115;-82
2023/01/13 14:55:12;;;;;;;12.43;3.13;;;;;;;7.46;100.00;100162.28;10458933;28;20049;-76
2023/01/13 15:00:12;;;;;;;13.95;3.25;;;;;;;7.55;100.00;100170.09;10482348;28;20067;-75
2023/01/13 15:05:16;;;;;;;13.50;2.83;;;;;;;7.59;100.00;100204.13;10477340;28;20045;-74
2023/01/13 15:10:17;;;;;;;16.35;2.97;;;;;;;7.69;100.00;100182.34;10479670;28;20069;-75
2023/01/13 15:15:31;;;;;;;9.60;2.08;;;;;;;7.63;100.00;100184.19;10453408;28;20033;-75
2023/01/13 15:20:32;;;;;;;11.55;2.78;;;;;;;7.62;100.00;100209.06;10480745;28;20039;-72
2023/01/13 15:25:33;;;;;;;9.00;2.15;;;;;;;7.59;100.00;100201.38;10479455;28;20512;-75
2023/01/13 15:30:34;;;;;;;14.13;2.60;;;;;;;7.61;100.00;100230.16;10463158;28;20041;-73
2023/01/13 15:35:34;;;;;;;8.07;2.25;;;;;;;7.52;100.00;100222.63;10477283;28;20057;-75
2023/01/13 15:40:35;;;;;;;8.82;2.08;;;;;;;7.42;100.00;100262.47;10460614;28;20052;-72
2023/01/13 15:50:55;;;;;;;16.75;3.25;;;;;;;7.24;100.00;100263.53;10480056;28;20076;-75
2023/01/13 15:55:56;;;;;;;9.55;2.42;;;;;;;7.24;100.00;100301.03;10461939;28;20044;-73
2023/01/13 16:00:56;;;;;;;8.00;2.70;;;;;;;7.16;100.00;100306.91;10462203;28;20116;-74
2023/01/13 16:05:57;;;;;;;6.50;2.50;;;;;;;7.16;100.00;100315.94;10472989;28;20127;-75
2023/01/13 16:10:57;;;;;;;10.85;2.58;;;;;;;7.18;100.00;100324.75;10478237;28;20117;-74
2023/01/13 16:15:59;;;;;;;15.75;4.47;;;;;;;7.23;100.00;100305.66;10461526;28;20033;-74
2023/01/13 16:20:59;;;;;;;10.93;2.85;;;;;;;7.40;100.00;100316.66;10479360;28;20040;-73
2023/01/13 16:26:00;;;;;;;11.07;2.47;;;;;;;7.48;100.00;100335.44;10474621;28;20044;-73
2023/01/13 16:31:13;;;;;;;15.02;3.70;;;;;;;7.42;100.00;100358.31;10445810;28;20037;-74
2023/01/13 16:36:15;;;;;;;10.77;2.92;;;;;;;7.35;100.00;100352.16;10445017;28;20044;-74
2023/01/13 16:41:16;;;;;;;12.90;3.42;;;;;;;7.30;100.00;100376.72;10484649;28;20040;-77
2023/01/13 16:46:27;;;;;;;12.18;2.90;;;;;;;7.17;100.00;100401.63;10440836;28;20052;-77
2023/01/13 16:51:27;;;;;;;16.90;5.68;;;;;;;7.01;100.00;100409.53;10446222;28;20071;-78
2023/01/13 16:56:29;;;;;;;10.60;3.50;;;;;;;6.90;100.00;100409.56;10479619;28;20040;-76
2023/01/13 17:01:31;;;;;;;8.10;3.65;;;;;;;6.81;100.00;100425.53;10495169;28;20067;-74
2023/01/13 17:06:44;;;;;;;11.80;4.22;;;;;;;6.82;100.00;100446.34;10495408;28;20036;-74
2023/01/13 17:11:45;;;;;;;14.73;4.72;;;;;;;6.87;100.00;100460.16;10497129;28;20032;-75
2023/01/13 17:16:46;;;;;;;10.68;3.28;;;;;;;6.79;100.00;100479.66;10496091;28;20048;-75
2023/01/13 17:21:46;;;;;;;13.82;5.50;;;;;;;6.63;100.00;100476.56;10496012;28;20047;-75
2023/01/13 17:26:50;;;;;;;15.93;5.55;;;;;;;6.57;100.00;100490.34;10436985;28;20037;-77
2023/01/13 17:31:51;;;;;;;16.27;5.45;;;;;;;6.47;100.00;100510.94;10474639;28;20032;-74
2023/01/13 17:36:51;;;;;;;13.45;4.75;;;;;;;6.47;100.00;100530.06;10494181;28;20040;-79
2023/01/13 17:41:52;;;;;;;7.63;3.53;;;;;;;6.37;100.00;100505.22;10496166;28;20061;-75
2023/01/13 17:46:52;;;;;;;8.77;3.92;;;;;;;6.34;100.00;100532.19;10464822;28;20063;-76
2023/01/13 17:51:53;;;;;;;13.10;4.40;;;;;;;6.26;100.00;100516.94;10486361;28;20054;-75
2023/01/13 17:56:55;;;;;;;22.80;6.28;;;;;;;6.29;100.00;100540.28;10500838;28;20071;-74
2023/01/13 18:01:55;;;;;;;19.83;6.25;;;;;;;6.38;100.00;100544.31;10469638;28;20106;-74
2023/01/13 18:06:56;;;;;;;11.93;5.28;;;;;;;6.46;100.00;100560.38;10438225;28;20543;-74
2023/01/13 18:11:57;;;;;;;16.67;5.32;;;;;;;6.60;100.00;100563.75;10443463;28;20038;-75
2023/01/13 18:16:58;;;;;;;13.18;5.68;;;;;;;6.72;100.00;100566.47;10462522;28;20124;-74
2023/01/13 18:27:21;;;;;;;17.45;4.57;;;;;;;6.92;100.00;100571.63;10499969;28;20463;-76
2023/01/13 18:32:22;;;;;;;20.48;5.60;;;;;;;6.84;100.00;100578.28;10500883;28;20037;-75
2023/01/13 18:37:23;;;;;;;14.18;3.47;;;;;;;7.05;100.00;100582.34;10425836;28;20107;-76
2023/01/13 18:47:43;;;;;;;15.02;4.10;;;;;;;7.05;100.00;100609.72;10501131;28;20041;-73
2023/01/13 18:52:43;;;;;;;11.20;3.28;;;;;;;7.10;100.00;100606.25;10501177;28;20041;-74
2023/01/13 18:57:44;;;;;;;16.80;3.97;;;;;;;7.20;100.00;100623.75;10498936;28;20094;-73
2023/01/13 19:02:46;;;;;;;18.50;3.47;;;;;;;7.26;100.00;100628.28;10482319;28;20036;-74
2023/01/13 19:07:49;;;;;;;11.57;2.58;;;;;;;7.26;100.00;100633.75;10475519;28;20037;-74
2023/01/13 19:12:50;;;;;;;13.70;3.85;;;;;;;7.26;100.00;100652.09;10475566;28;20524;-75
2023/01/13 19:17:50;;;;;;;10.77;2.85;;;;;;;7.34;100.00;100657.22;10441008;28;20105;-78
2023/01/13 19:22:53;;;;;;;10.52;2.95;;;;;;;7.32;100.00;100655.75;10478012;28;20051;-74
2023/01/13 19:27:53;;;;;;;17.13;3.78;;;;;;;7.33;100.00;100665.66;10456967;28;20049;-73
2023/01/13 19:32:54;;;;;;;11.68;3.72;;;;;;;7.23;100.00;100666.25;10441430;28;20108;-74
2023/01/13 19:37:55;;;;;;;14.55;3.95;;;;;;;7.23;100.00;100682.69;10458456;28;20043;-72
2023/01/13 19:48:15;;;;;;;16.58;4.10;;;;;;;7.07;100.00;100695.19;10476174;28;20058;-72
2023/01/13 19:53:16;;;;;;;15.35;3.38;;;;;;;7.17;100.00;100708.25;10488101;28;20051;-74
2023/01/13 19:58:17;;;;;;;21.33;3.67;;;;;;;7.27;100.00;100730.41;10458182;28;20066;-72
2023/01/13 20:03:22;;;;;;;16.48;4.22;;;;;;;7.19;100.00;100720.66;10483309;28;20055;-73
2023/01/13 20:08:22;;;;;;;11.18;3.08;;;;;;;7.13;100.00;100731.69;10500929;28;20044;-72
2023/01/13 20:13:23;;;;;;;20.77;3.95;;;;;;;7.19;100.00;100763.63;10500110;28;20040;-72
2023/01/13 20:18:23;;;;;;;15.75;5.13;;;;;;;7.13;100.00;100764.56;10487036;28;20442;-74
2023/01/13 20:23:24;;;;;;;15.13;3.90;;;;;;;6.66;100.00;100804.38;10486027;28;20040;-77
2023/01/13 20:28:24;;;;;;;11.02;3.85;;;;;;;6.25;100.00;100796.88;10457881;28;20040;-75
2023/01/13 20:33:25;;;;;;;8.75;4.60;;;;;;;6.08;100.00;100823.97;10501617;28;20104;-75
2023/01/13 20:38:25;;;;;;;7.85;4.25;;;;;;;5.97;100.00;100841.09;10499832;28;20051;-72
2023/01/13 20:43:26;;;;;;;6.00;4.22;;;;;;;5.79;100.00;100833.69;10499094;28;20044;-75
2023/01/13 20:48:27;;;;;;;7.57;4.00;;;;;;;5.68;100.00;100837.94;10498764;28;20033;-73
2023/01/13 20:53:27;;;;;;;4.63;4.18;;;;;;;5.51;100.00;100828.66;10498437;28;20047;-74
2023/01/13 20:58:28;;;;;;;5.85;5.22;;;;;;;5.40;100.00;100839.22;10497943;28;20036;-74
2023/01/13 21:03:28;;;;;;;5.90;4.25;;;;;;;5.30;100.00;100838.88;10498288;28;20067;-74
2023/01/13 21:08:29;;;;;;;7.15;4.50;;;;;;;5.25;100.00;100852.38;10497489;28;20096;-75
2023/01/13 21:19:09;;;;;;;8.05;4.78;;;;;;;5.47;100.00;100872.78;10483241;28;20432;-74
2023/01/13 21:24:09;;;;;;;5.18;4.43;;;;;;;5.56;100.00;100877.97;10470617;28;20055;-75
2023/01/13 21:29:10;;;;;;;8.85;5.60;;;;;;;5.54;100.00;100893.72;10454168;28;20049;-73
2023/01/13 21:34:10;;;;;;;7.90;5.88;;;;;;;5.53;100.00;100897.53;10463255;28;20064;-75
2023/01/13 21:39:12;;;;;;;13.73;4.85;;;;;;;5.56;100.00;100908.00;10463076;28;20071;-74
2023/01/13 21:49:43;;;;;;;8.20;4.40;;;;;;;5.61;100.00;100910.94;10488938;28;20100;-74
2023/01/13 22:00:03;;;;;;;8.48;4.15;;;;;;;5.72;100.00;100940.25;10479079;28;20072;-74
2023/01/13 22:05:05;;;;;;;9.25;4.32;;;;;;;5.70;100.00;100925.97;10504155;28;20048;-76
2023/01/13 22:10:08;;;;;;;7.22;4.70;;;;;;;5.72;100.00;100942.16;10470062;28;20041;-76
2023/01/13 22:15:10;;;;;;;7.65;4.30;;;;;;;5.75;100.00;100950.75;10487563;28;20060;-76
2023/01/13 22:20:11;;;;;;;8.73;4.32;;;;;;;5.69;100.00;100942.63;10504311;28;20036;-75
2023/01/13 22:25:12;;;;;;;13.73;6.32;;;;;;;5.74;100.00;100968.19;10504596;28;20040;-75
2023/01/13 22:30:17;;;;;;;10.18;5.63;;;;;;;5.68;100.00;100973.69;10447862;28;20037;-74
2023/01/13 22:35:18;;;;;;;8.18;5.95;;;;;;;5.61;100.00;100976.47;10442458;28;20064;-76
2023/01/13 22:40:18;;;;;;;9.30;5.50;;;;;;;5.63;100.00;100980.66;10450505;28;20429;-75
2023/01/13 22:45:19;;;;;;;14.48;6.55;;;;;;;5.61;100.00;100995.59;10465197;28;20108;-75
2023/01/13 22:50:21;;;;;;;9.80;6.05;;;;;;;5.60;100.00;100991.19;10443926;28;20095;-73
2023/01/13 22:55:22;;;;;;;13.20;6.57;;;;;;;5.62;100.00;101006.31;10460949;28;20029;-74
2023/01/13 23:00:23;;;;;;;13.27;6.20;;;;;;;5.59;100.00;100986.78;10462123;28;20037;-76
2023/01/13 23:05:27;;;;;;;9.85;5.75;;;;;;;5.80;100.00;100993.81;10451948;28;20036;-75
2023/01/13 23:10:28;;;;;;;7.50;5.00;;;;;;;5.72;100.00;101005.81;10489434;28;20450;-75
2023/01/13 23:15:28;;;;;;;7.97;3.35;;;;;;;5.67;100.00;101002.91;10502364;28;20036;-76
2023/01/13 23:20:29;;;;;;;11.30;4.07;;;;;;;5.61;100.00;101009.25;10455410;28;20159;-74
2023/01/13 23:25:29;;;;;;;6.28;4.10;;;;;;;5.66;100.00;101017.63;10470302;28;20128;-74
2023/01/13 23:30:30;;;;;;;9.60;4.63;;;;;;;5.72;100.00;101022.22;10485417;28;20039;-73
2023/01/13 23:35:30;;;;;;;17.00;4.57;;;;;;;5.81;100.00;101009.97;10458683;28;20033;-75
2023/01/13 23:40:34;;;;;;;14.15;5.00;;;;;;;5.94;100.00;101000.84;10476564;28;20052;-75
2023/01/13 23:45:34;;;;;;;18.60;5.63;;;;;;;5.85;100.00;101011.22;10478622;28;20037;-74
2023/01/13 23:50:35;;;;;;;22.88;6.90;;;;;;;5.88;100.00;101025.50;10500961;28;20029;-75
2023/01/13 23:55:36;;;;;;;15.38;5.78;;;;;;;5.92;100.00;101032.19;10503326;28;20060;-74
